createdAt,value
2024-04-18T00:01:00.230Z,75.63
2024-04-18T00:03:43.240Z,75.73
2024-04-18T00:09:09.828Z,75.45
2024-04-18T00:11:41.447Z,75.48
2024-04-18T00:14:21.507Z,75.62
2024-04-18T00:17:05.896Z,75.80
2024-04-18T00:19:48.371Z,76.17
2024-04-18T00:22:41.134Z,76.41
2024-04-18T00:25:22.475Z,76.84
2024-04-18T00:28:19.716Z,76.88
2024-04-18T00:30:54.668Z,77.16
2024-04-18T00:33:36.027Z,77.45
2024-04-18T00:36:34.065Z,76.89
2024-04-18T00:39:30.287Z,76.42
2024-04-18T00:42:08.013Z,75.98
2024-04-18T00:45:09.963Z,75.78
2024-04-18T00:48:04.294Z,75.84
2024-04-18T00:57:19.400Z,76.67
2024-04-18T01:00:12.152Z,76.83
2024-04-18T01:06:25.227Z,77.26
2024-04-18T01:09:24.724Z,77.48
2024-04-18T01:12:17.939Z,77.75
2024-04-18T01:17:46.081Z,78.17
2024-04-18T01:20:23.314Z,78.33
2024-04-18T01:23:12.943Z,78.39
2024-04-18T01:26:03.591Z,78.10
2024-04-18T01:28:36.461Z,78.07
2024-04-18T01:31:12.716Z,77.95
2024-04-18T01:33:52.374Z,78.06
2024-04-18T01:36:52.005Z,77.90
2024-04-18T01:39:38.332Z,77.84
2024-04-18T01:42:15.745Z,77.94
2024-04-18T01:47:53.399Z,78.15
2024-04-18T01:56:31.977Z,77.84
2024-04-18T01:59:36.033Z,77.83
2024-04-18T02:02:14.007Z,77.91
2024-04-18T02:05:18.175Z,78.12
2024-04-18T02:08:03.465Z,78.15
2024-04-18T02:11:15.738Z,78.43
2024-04-18T02:14:11.815Z,78.30
2024-04-18T02:17:02.319Z,78.24
2024-04-18T02:22:41.973Z,77.52
2024-04-18T02:25:42.445Z,77.28
2024-04-18T02:31:21.832Z,77.06
2024-04-18T02:34:03.344Z,77.23
2024-04-18T02:37:00.391Z,76.83
2024-04-18T02:43:13.451Z,76.39
2024-04-18T02:49:07.699Z,75.20
2024-04-18T02:52:10.048Z,75.19
2024-04-18T02:54:58.346Z,75.21
2024-04-18T02:57:32.774Z,75.19
2024-04-18T03:00:07.218Z,75.28
2024-04-18T03:02:52.120Z,75.31
2024-04-18T03:05:49.206Z,75.20
2024-04-18T03:08:39.471Z,75.16
2024-04-18T03:11:45.479Z,74.93
2024-04-18T03:14:29.348Z,75.05
2024-04-18T03:17:31.461Z,75.33
2024-04-18T03:20:53.659Z,75.56
2024-04-18T03:23:52.067Z,75.59
2024-04-18T03:32:39.694Z,75.32
2024-04-18T03:35:35.777Z,75.30
2024-04-18T03:44:18.773Z,74.75
2024-04-18T03:47:01.590Z,74.21
2024-04-18T03:49:50.226Z,73.70
2024-04-18T03:52:50.789Z,73.79
2024-04-18T03:55:48.544Z,73.89
2024-04-18T03:58:29.033Z,74.22
2024-04-18T04:04:22.408Z,73.89
2024-04-18T04:09:42.488Z,73.93
2024-04-18T04:12:29.367Z,74.04
2024-04-18T04:15:17.908Z,73.95
2024-04-18T04:21:23.835Z,73.48
2024-04-18T04:24:05.678Z,73.60
2024-04-18T04:26:59.789Z,73.72
2024-04-18T04:29:59.072Z,73.71
2024-04-18T04:32:34.482Z,73.69
2024-04-18T04:35:39.318Z,74.25
2024-04-18T04:38:23.530Z,74.15
2024-04-18T04:44:06.328Z,74.63
2024-04-18T04:47:09.322Z,75.05
2024-04-18T04:50:01.475Z,75.00
2024-04-18T04:53:29.126Z,75.13
2024-04-18T04:56:21.873Z,75.80
2024-04-18T04:59:15.353Z,76.46
2024-04-18T05:02:15.671Z,76.48
2024-04-18T05:08:36.828Z,76.47
2024-04-18T05:11:15.767Z,76.62
2024-04-18T05:17:15.386Z,76.55
2024-04-18T05:20:25.737Z,76.70
2024-04-18T05:23:09.034Z,76.84
2024-04-18T05:25:54.128Z,77.09
2024-04-18T05:28:58.957Z,76.85
2024-04-18T05:31:41.598Z,76.80
2024-04-18T05:34:19.504Z,76.83
2024-04-18T05:37:05.144Z,76.56
2024-04-18T05:42:39.484Z,76.62
2024-04-18T05:45:52.843Z,76.80
2024-04-18T05:48:33.778Z,76.81
2024-04-18T05:54:12.162Z,76.67
2024-04-18T05:57:07.947Z,76.96
2024-04-18T05:59:56.612Z,76.74
2024-04-18T06:05:19.498Z,76.73
2024-04-18T06:08:13.101Z,76.46
2024-04-18T06:10:56.310Z,76.51
2024-04-18T06:16:42.842Z,76.72
2024-04-18T06:20:04.942Z,76.94
2024-04-18T06:22:39.289Z,77.05
2024-04-18T06:25:50.009Z,76.73
2024-04-18T06:31:58.396Z,77.00
2024-04-18T06:37:57.516Z,77.39
2024-04-18T06:40:37.033Z,77.25
2024-04-18T06:43:24.862Z,77.27
2024-04-18T06:46:05.801Z,76.92
2024-04-18T06:48:45.684Z,76.54
2024-04-18T06:51:29.706Z,76.44
2024-04-18T06:59:48.700Z,76.27
2024-04-18T07:02:38.885Z,75.80
2024-04-18T07:08:24.535Z,75.32
2024-04-18T07:11:04.863Z,75.56
2024-04-18T07:13:55.579Z,75.47
2024-04-18T07:19:40.802Z,75.81
2024-04-18T07:28:54.840Z,76.71
2024-04-18T07:31:33.069Z,76.76
2024-04-18T07:34:45.531Z,77.41
2024-04-18T07:37:19.853Z,77.91
2024-04-18T07:39:58.136Z,78.10
2024-04-18T07:42:46.703Z,78.30
2024-04-18T07:45:53.318Z,78.56
2024-04-18T07:48:58.046Z,78.91
2024-04-18T07:51:47.535Z,78.84
2024-04-18T07:54:34.016Z,79.20
2024-04-18T07:57:18.349Z,79.21
2024-04-18T08:00:02.048Z,79.38
2024-04-18T08:06:14.225Z,79.22
2024-04-18T08:15:00.675Z,77.39
2024-04-18T08:17:43.772Z,77.07
2024-04-18T08:20:47.338Z,76.97
2024-04-18T08:26:16.277Z,76.27
2024-04-18T08:28:58.438Z,76.36
2024-04-18T08:31:57.344Z,76.33
2024-04-18T08:34:39.288Z,76.35
2024-04-18T08:37:28.532Z,76.62
2024-04-18T08:40:10.792Z,76.85
2024-04-18T08:42:48.327Z,76.85
2024-04-18T08:45:39.560Z,76.73
2024-04-18T08:48:30.584Z,76.83
2024-04-18T08:51:19.141Z,76.56
2024-04-18T08:54:02.671Z,76.75
2024-04-18T08:56:36.061Z,76.81
2024-04-18T08:59:20.025Z,76.36
2024-04-18T09:02:16.875Z,75.97
2024-04-18T09:05:03.303Z,76.09
2024-04-18T09:07:47.917Z,75.90
2024-04-18T09:10:38.639Z,75.36
2024-04-18T09:13:28.229Z,75.25
2024-04-18T09:16:26.572Z,75.30
2024-04-18T09:19:09.433Z,75.43
2024-04-18T09:21:51.466Z,75.85
2024-04-18T09:24:39.691Z,75.75
2024-04-18T09:27:23.821Z,75.95
2024-04-18T09:38:30.661Z,76.82
2024-04-18T09:44:38.096Z,77.31
2024-04-18T09:47:20.063Z,77.44
2024-04-18T09:53:05.347Z,77.39
2024-04-18T10:01:42.697Z,77.43
2024-04-18T10:07:07.001Z,76.90
2024-04-18T10:09:46.567Z,76.66
2024-04-18T10:12:27.551Z,76.40
2024-04-18T10:15:03.673Z,75.91
2024-04-18T10:17:36.783Z,75.28
2024-04-18T10:20:13.703Z,74.80
2024-04-18T10:22:48.571Z,75.23
2024-04-18T10:25:36.878Z,74.09
2024-04-18T10:28:31.501Z,73.83
2024-04-18T10:31:16.063Z,73.23
2024-04-18T10:33:52.827Z,72.90
2024-04-18T10:36:34.568Z,72.28
2024-04-18T10:39:12.885Z,71.96
2024-04-18T10:41:54.980Z,72.40
2024-04-18T10:44:34.257Z,72.06
2024-04-18T10:47:05.244Z,71.49
2024-04-18T10:49:41.884Z,71.02
2024-04-18T10:52:26.317Z,70.71
2024-04-18T10:55:02.954Z,58.45
2024-04-18T10:57:39.709Z,50.93
2024-04-18T11:00:18.697Z,47.83
2024-04-18T11:02:50.225Z,46.56
2024-04-18T11:05:25.499Z,48.30
2024-04-18T11:07:56.409Z,48.24
2024-04-18T11:10:30.798Z,52.18
2024-04-18T11:13:03.500Z,54.74
2024-04-18T11:15:35.069Z,55.65
2024-04-18T11:18:10.295Z,59.05
2024-04-18T11:20:41.474Z,57.63
2024-04-18T11:23:15.522Z,59.09
2024-04-18T11:25:47.077Z,59.74
2024-04-18T11:28:17.579Z,58.94
2024-04-18T11:30:48.383Z,60.22
2024-04-18T11:33:25.530Z,59.09
2024-04-18T11:35:57.551Z,58.05
2024-04-18T11:38:30.303Z,57.38
2024-04-18T11:41:01.031Z,57.46
2024-04-18T11:43:31.354Z,56.69
2024-04-18T11:46:01.862Z,55.87
2024-04-18T11:48:32.354Z,54.39
2024-04-18T11:51:02.576Z,55.89
2024-04-18T11:53:33.425Z,54.85
2024-04-18T11:56:04.976Z,54.48
2024-04-18T11:58:35.684Z,53.51
2024-04-18T12:01:06.376Z,51.49
2024-04-18T12:03:43.613Z,55.13
2024-04-18T12:06:35.717Z,51.97
2024-04-18T12:09:06.706Z,52.45
2024-04-18T12:11:37.607Z,52.56
2024-04-18T12:14:15.301Z,51.09
2024-04-18T12:16:58.799Z,53.31
2024-04-18T12:19:46.651Z,51.23
2024-04-18T12:22:37.338Z,52.15
2024-04-18T12:25:19.575Z,53.21
2024-04-18T12:27:51.209Z,50.22
2024-04-18T12:30:35.113Z,51.86
2024-04-18T12:33:25.341Z,52.79
2024-04-18T12:35:57.222Z,51.36
2024-04-18T12:38:28.824Z,51.69
2024-04-18T12:41:05.119Z,50.01
2024-04-18T12:43:39.991Z,52.34
2024-04-18T12:46:29.589Z,51.45
2024-04-18T12:49:01.447Z,51.64
2024-04-18T12:51:32.620Z,51.81
2024-04-18T12:54:03.035Z,52.26
2024-04-18T12:56:54.594Z,49.59
2024-04-18T12:59:26.675Z,52.22
2024-04-18T13:01:57.314Z,50.40
2024-04-18T13:04:29.063Z,52.11
2024-04-18T13:07:01.359Z,51.19
2024-04-18T13:09:33.235Z,50.85
2024-04-18T13:12:05.129Z,49.39
2024-04-18T13:14:56.027Z,49.85
2024-04-18T13:17:28.947Z,48.88
2024-04-18T13:20:02.633Z,50.03
2024-04-18T13:22:33.261Z,50.90
2024-04-18T13:25:03.753Z,49.98
2024-04-18T13:27:34.266Z,50.03
2024-04-18T13:30:08.999Z,48.17
2024-04-18T13:32:40.599Z,50.70
2024-04-18T13:35:14.487Z,49.01
2024-04-18T13:37:46.310Z,51.26
2024-04-18T13:40:25.615Z,49.02
2024-04-18T13:43:02.321Z,50.71
2024-04-18T13:45:34.525Z,50.80
2024-04-18T13:48:07.653Z,50.60
2024-04-18T13:50:50.708Z,47.71
2024-04-18T13:53:22.512Z,50.41
2024-04-18T13:55:53.847Z,49.26
2024-04-18T13:58:26.817Z,50.72
2024-04-18T14:01:07.365Z,49.30
2024-04-18T14:04:00.136Z,48.03
2024-04-18T14:06:42.422Z,49.62
2024-04-18T14:09:20.567Z,48.79
2024-04-18T14:11:51.616Z,48.47
2024-04-18T14:14:43.214Z,49.81
2024-04-18T14:17:52.146Z,50.21
2024-04-18T14:20:22.523Z,49.53
2024-04-18T14:23:08.313Z,49.44
2024-04-18T14:25:38.876Z,50.80
2024-04-18T14:28:24.272Z,48.97
2024-04-18T14:31:21.376Z,49.32
2024-04-18T14:33:52.460Z,50.09
2024-04-18T14:36:22.841Z,48.70
2024-04-18T14:38:52.900Z,50.19
2024-04-18T14:41:22.899Z,50.09
2024-04-18T14:43:56.072Z,49.49
2024-04-18T14:46:28.261Z,51.05
2024-04-18T14:49:19.764Z,48.56
2024-04-18T14:51:58.595Z,50.74
2024-04-18T14:54:29.396Z,49.07
2024-04-18T14:57:00.086Z,49.99
2024-04-18T14:59:39.230Z,49.45
2024-04-18T15:02:09.898Z,51.12
2024-04-18T15:05:00.058Z,49.85
2024-04-18T15:07:30.768Z,49.16
2024-04-18T15:10:18.654Z,49.16
2024-04-18T15:13:00.850Z,51.67
2024-04-18T15:15:31.390Z,50.81
2024-04-18T15:18:02.340Z,51.06
2024-04-18T15:20:33.542Z,50.03
2024-04-18T15:23:13.420Z,50.96
2024-04-18T15:25:45.362Z,49.28
2024-04-18T15:28:16.361Z,50.97
2024-04-18T15:30:47.255Z,50.64
2024-04-18T15:33:26.213Z,52.04
2024-04-18T15:36:16.384Z,50.45
2024-04-18T15:38:53.674Z,51.10
2024-04-18T15:41:23.933Z,50.70
2024-04-18T15:44:13.343Z,49.31
2024-04-18T15:46:44.442Z,50.14
2024-04-18T15:49:15.754Z,50.81
2024-04-18T15:51:49.228Z,50.32
2024-04-18T15:54:19.902Z,49.59
2024-04-18T15:56:50.579Z,50.87
2024-04-18T15:59:46.919Z,50.62
2024-04-18T16:02:18.524Z,51.01
2024-04-18T16:04:49.257Z,49.09
2024-04-18T16:07:19.740Z,50.22
2024-04-18T16:09:55.822Z,48.96
2024-04-18T16:12:26.860Z,49.75
2024-04-18T16:15:05.102Z,48.72
2024-04-18T16:17:35.542Z,49.13
2024-04-18T16:20:15.475Z,49.73
2024-04-18T16:22:45.762Z,51.03
2024-04-18T16:25:32.370Z,49.83
2024-04-18T16:28:03.040Z,50.54
2024-04-18T16:30:33.557Z,48.15
2024-04-18T16:33:04.586Z,48.76
2024-04-18T16:35:34.644Z,49.39
2024-04-18T16:38:14.329Z,49.82
2024-04-18T16:40:54.984Z,50.02
2024-04-18T16:43:38.237Z,50.34
2024-04-18T16:46:09.345Z,48.18
2024-04-18T16:48:41.420Z,49.21
2024-04-18T16:51:12.562Z,48.34
2024-04-18T16:53:58.394Z,50.05
2024-04-18T16:56:40.860Z,49.75
2024-04-18T16:59:12.723Z,50.09
2024-04-18T17:01:43.386Z,49.03
2024-04-18T17:04:14.200Z,49.46
2024-04-18T17:07:04.431Z,49.22
2024-04-18T17:09:54.997Z,49.13
2024-04-18T17:12:25.607Z,48.81
2024-04-18T17:15:27.815Z,49.06
2024-04-18T17:17:59.402Z,49.84
2024-04-18T17:20:30.860Z,49.69
2024-04-18T17:23:01.791Z,50.12
2024-04-18T17:25:32.108Z,48.68
2024-04-18T17:28:02.136Z,49.77
2024-04-18T17:30:32.698Z,49.33
2024-04-18T17:33:03.292Z,50.56
2024-04-18T17:35:55.423Z,49.60
2024-04-18T17:38:46.371Z,50.02
2024-04-18T17:41:32.494Z,50.43
2024-04-18T17:44:21.239Z,50.07
2024-04-18T17:46:58.938Z,49.09
2024-04-18T17:49:30.499Z,49.89
2024-04-18T17:52:00.967Z,49.96
2024-04-18T17:54:31.072Z,49.64
2024-04-18T17:57:01.110Z,50.18
2024-04-18T17:59:31.229Z,49.82
2024-04-18T18:02:01.201Z,49.06
2024-04-18T18:04:31.181Z,50.09
2024-04-18T18:07:01.549Z,50.18
2024-04-18T18:09:31.597Z,49.80
2024-04-18T18:12:01.614Z,49.99
2024-04-18T18:14:31.784Z,50.17
2024-04-18T18:17:02.871Z,50.23
2024-04-18T18:19:33.273Z,50.52
2024-04-18T18:22:04.426Z,50.48
2024-04-18T18:24:34.828Z,51.23
2024-04-18T18:27:05.266Z,50.38
2024-04-18T18:29:35.334Z,50.44
2024-04-18T18:32:15.727Z,50.04
2024-04-18T18:34:49.995Z,50.29
2024-04-18T18:37:20.765Z,52.13
2024-04-18T18:40:11.091Z,50.44
2024-04-18T18:42:41.618Z,50.54
2024-04-18T18:45:13.204Z,50.70
2024-04-18T18:47:44.084Z,50.80
2024-04-18T18:50:24.343Z,49.81
2024-04-18T18:52:55.117Z,50.60
2024-04-18T18:55:46.018Z,50.82
2024-04-18T18:58:16.252Z,52.38
2024-04-18T19:00:47.714Z,51.54
2024-04-18T19:03:19.699Z,50.43
2024-04-18T19:05:53.680Z,51.92
2024-04-18T19:08:23.928Z,51.28
2024-04-18T19:10:57.173Z,51.57
2024-04-18T19:13:27.866Z,52.73
2024-04-18T19:15:59.791Z,54.15
2024-04-18T19:18:30.526Z,52.71
2024-04-18T19:21:00.542Z,52.42
2024-04-18T19:23:41.391Z,53.19
2024-04-18T19:26:15.278Z,52.97
2024-04-18T19:28:45.752Z,53.38
2024-04-18T19:31:16.034Z,53.14
2024-04-18T19:33:46.332Z,53.56
2024-04-18T19:36:16.720Z,53.20
2024-04-18T19:38:47.966Z,52.91
2024-04-18T19:41:41.020Z,53.17
2024-04-18T19:44:11.752Z,54.04
2024-04-18T19:46:41.998Z,54.62
2024-04-18T19:49:13.901Z,55.02
2024-04-18T19:52:02.851Z,54.97
2024-04-18T19:54:35.975Z,55.21
2024-04-18T19:57:07.532Z,55.23
2024-04-18T19:59:41.222Z,54.76
2024-04-18T20:02:11.850Z,55.62
2024-04-18T20:04:42.957Z,56.17
2024-04-18T20:07:13.255Z,57.39
2024-04-18T20:09:43.567Z,56.83
2024-04-18T20:12:13.566Z,57.22
2024-04-18T20:15:03.818Z,57.35
2024-04-18T20:17:34.284Z,57.49
2024-04-18T20:20:04.394Z,57.39
2024-04-18T20:22:34.617Z,57.51
2024-04-18T20:25:04.892Z,57.65
2024-04-18T20:27:44.099Z,56.94
2024-04-18T20:30:14.975Z,58.01
2024-04-18T20:33:05.651Z,58.61
2024-04-18T20:35:36.168Z,59.66
2024-04-18T20:38:06.588Z,60.44
2024-04-18T20:40:37.122Z,60.48
2024-04-18T20:43:07.380Z,60.80
2024-04-18T20:45:37.833Z,61.57
2024-04-18T20:48:09.102Z,61.59
2024-04-18T20:50:39.498Z,61.92
2024-04-18T20:53:09.403Z,61.81
2024-04-18T20:55:39.717Z,61.47
2024-04-18T20:58:09.968Z,61.79
2024-04-18T21:00:40.271Z,62.47
2024-04-18T21:03:10.374Z,62.58
2024-04-18T21:05:40.846Z,62.66
2024-04-18T21:08:10.815Z,63.06
2024-04-18T21:10:41.039Z,64.33
2024-04-18T21:13:14.979Z,64.28
2024-04-18T21:15:45.941Z,64.49
2024-04-18T21:18:16.973Z,64.81
2024-04-18T21:20:47.571Z,66.27
2024-04-18T21:23:17.558Z,65.36
2024-04-18T21:25:47.572Z,65.61
2024-04-18T21:28:17.752Z,65.89
2024-04-18T21:30:48.061Z,65.11
2024-04-18T21:33:18.785Z,64.86
2024-04-18T21:35:51.532Z,64.48
2024-04-18T21:38:46.732Z,65.00
2024-04-18T21:41:25.307Z,65.44
2024-04-18T21:43:59.032Z,65.97
2024-04-18T21:46:29.536Z,65.92
2024-04-18T21:48:59.556Z,65.83
2024-04-18T21:51:29.894Z,66.21
2024-04-18T21:54:01.256Z,66.40
2024-04-18T21:56:32.102Z,66.76
2024-04-18T21:59:02.501Z,66.78
2024-04-18T22:01:44.657Z,66.90
2024-04-18T22:04:15.413Z,67.04
2024-04-18T22:06:45.485Z,67.28
2024-04-18T22:09:15.433Z,67.11
2024-04-18T22:11:46.518Z,67.54
2024-04-18T22:14:17.826Z,67.42
2024-04-18T22:16:48.419Z,68.26
2024-04-18T22:19:18.514Z,68.02
2024-04-18T22:21:49.000Z,68.72
2024-04-18T22:24:19.332Z,67.98
2024-04-18T22:26:49.770Z,68.15
2024-04-18T22:29:19.990Z,67.97
2024-04-18T22:31:50.267Z,67.96
2024-04-18T22:34:27.824Z,67.85
2024-04-18T22:37:03.353Z,67.93
2024-04-18T22:39:33.993Z,67.93
2024-04-18T22:42:05.093Z,68.05
2024-04-18T22:44:35.473Z,68.08
2024-04-18T22:47:05.836Z,68.39
2024-04-18T22:49:36.888Z,69.25
2024-04-18T22:52:07.552Z,69.24
2024-04-18T22:54:37.806Z,69.06
2024-04-18T22:57:20.500Z,69.29
2024-04-18T22:59:50.882Z,69.47
2024-04-18T23:02:20.973Z,69.87
2024-04-18T23:04:50.974Z,69.79
2024-04-18T23:07:20.925Z,69.66
2024-04-18T23:09:51.105Z,70.06
2024-04-18T23:12:21.287Z,70.70
2024-04-18T23:14:51.574Z,70.92
2024-04-18T23:17:21.639Z,71.33
2024-04-18T23:19:51.979Z,71.53
2024-04-18T23:22:21.920Z,72.74
2024-04-18T23:24:52.588Z,72.19
2024-04-18T23:27:22.859Z,72.10
2024-04-18T23:29:53.100Z,72.45
2024-04-18T23:32:23.424Z,72.18
2024-04-18T23:34:53.752Z,72.49
2024-04-18T23:37:23.732Z,72.40
2024-04-18T23:39:54.359Z,71.99
2024-04-18T23:42:26.223Z,72.24
2024-04-18T23:44:56.854Z,75.34
2024-04-18T23:47:26.894Z,73.74
2024-04-18T23:49:57.189Z,72.98
2024-04-18T23:52:27.454Z,72.57
2024-04-18T23:55:00.518Z,72.79
2024-04-18T23:57:30.712Z,72.36
